sensor_id;sensor_type;location;lat;lon;timestamp;P1;durP1;ratioP1;P2;durP2;ratioP2
19521;SDS011;9905;52.126;5.596;2023-03-23T00:02:13;25.13;;;23.83;;
19521;SDS011;9905;52.126;5.596;2023-03-23T00:04:41;23.00;;;21.75;;
19521;SDS011;9905;52.126;5.596;2023-03-23T00:07:08;22.55;;;21.42;;
19521;SDS011;9905;52.126;5.596;2023-03-23T00:09:37;23.48;;;22.20;;
19521;SDS011;9905;52.126;5.596;2023-03-23T00:12:07;21.92;;;20.83;;
19521;SDS011;9905;52.126;5.596;2023-03-23T00:14:35;21.02;;;19.92;;
19521;SDS011;9905;52.126;5.596;2023-03-23T00:17:06;21.75;;;20.65;;
19521;SDS011;9905;52.126;5.596;2023-03-23T00:19:35;21.25;;;19.90;;
19521;SDS011;9905;52.126;5.596;2023-03-23T00:22:10;20.35;;;19.15;;
19521;SDS011;9905;52.126;5.596;2023-03-23T00:24:37;20.73;;;19.58;;
19521;SDS011;9905;52.126;5.596;2023-03-23T00:27:04;19.55;;;18.63;;
19521;SDS011;9905;52.126;5.596;2023-03-23T00:29:32;19.77;;;18.95;;
19521;SDS011;9905;52.126;5.596;2023-03-23T00:31:59;20.73;;;19.55;;
19521;SDS011;9905;52.126;5.596;2023-03-23T00:34:27;19.63;;;18.83;;
19521;SDS011;9905;52.126;5.596;2023-03-23T00:36:57;17.42;;;16.60;;
19521;SDS011;9905;52.126;5.596;2023-03-23T00:39:25;18.25;;;16.95;;
19521;SDS011;9905;52.126;5.596;2023-03-23T00:41:53;18.10;;;17.40;;
19521;SDS011;9905;52.126;5.596;2023-03-23T00:44:25;17.98;;;17.00;;
19521;SDS011;9905;52.126;5.596;2023-03-23T00:46:54;17.45;;;16.65;;
19521;SDS011;9905;52.126;5.596;2023-03-23T00:49:21;16.50;;;15.60;;
19521;SDS011;9905;52.126;5.596;2023-03-23T00:51:51;15.82;;;15.13;;
19521;SDS011;9905;52.126;5.596;2023-03-23T00:54:17;14.98;;;14.38;;
19521;SDS011;9905;52.126;5.596;2023-03-23T00:56:45;15.40;;;14.75;;
19521;SDS011;9905;52.126;5.596;2023-03-23T00:59:12;14.13;;;13.52;;
19521;SDS011;9905;52.126;5.596;2023-03-23T01:01:39;15.25;;;14.65;;
19521;SDS011;9905;52.126;5.596;2023-03-23T01:04:07;14.10;;;13.60;;
19521;SDS011;9905;52.126;5.596;2023-03-23T01:06:37;14.82;;;14.25;;
19521;SDS011;9905;52.126;5.596;2023-03-23T01:09:06;13.45;;;12.85;;
19521;SDS011;9905;52.126;5.596;2023-03-23T01:11:34;13.18;;;12.48;;
19521;SDS011;9905;52.126;5.596;2023-03-23T01:14:02;12.90;;;12.10;;
19521;SDS011;9905;52.126;5.596;2023-03-23T01:16:30;11.90;;;11.40;;
19521;SDS011;9905;52.126;5.596;2023-03-23T01:18:57;11.30;;;10.70;;
19521;SDS011;9905;52.126;5.596;2023-03-23T01:21:25;11.73;;;11.23;;
19521;SDS011;9905;52.126;5.596;2023-03-23T01:23:52;11.32;;;10.80;;
19521;SDS011;9905;52.126;5.596;2023-03-23T01:26:20;10.75;;;10.20;;
19521;SDS011;9905;52.126;5.596;2023-03-23T01:28:48;10.48;;;9.98;;
19521;SDS011;9905;52.126;5.596;2023-03-23T01:31:16;10.43;;;10.00;;
19521;SDS011;9905;52.126;5.596;2023-03-23T01:33:45;9.68;;;9.18;;
19521;SDS011;9905;52.126;5.596;2023-03-23T01:36:12;9.65;;;9.25;;
19521;SDS011;9905;52.126;5.596;2023-03-23T01:38:42;8.90;;;8.43;;
19521;SDS011;9905;52.126;5.596;2023-03-23T01:41:09;9.38;;;8.98;;
19521;SDS011;9905;52.126;5.596;2023-03-23T01:46:25;10.10;;;9.38;;
19521;SDS011;9905;52.126;5.596;2023-03-23T01:48:52;10.82;;;10.18;;
19521;SDS011;9905;52.126;5.596;2023-03-23T01:51:23;9.88;;;9.38;;
19521;SDS011;9905;52.126;5.596;2023-03-23T01:53:54;9.57;;;8.98;;
19521;SDS011;9905;52.126;5.596;2023-03-23T01:56:24;9.68;;;9.27;;
19521;SDS011;9905;52.126;5.596;2023-03-23T01:58:57;10.10;;;9.60;;
19521;SDS011;9905;52.126;5.596;2023-03-23T02:01:25;9.32;;;8.93;;
19521;SDS011;9905;52.126;5.596;2023-03-23T02:03:53;10.60;;;10.00;;
19521;SDS011;9905;52.126;5.596;2023-03-23T02:06:22;10.10;;;9.45;;
19521;SDS011;9905;52.126;5.596;2023-03-23T02:08:49;9.70;;;9.30;;
19521;SDS011;9905;52.126;5.596;2023-03-23T02:11:20;9.63;;;9.23;;
19521;SDS011;9905;52.126;5.596;2023-03-23T02:13:48;10.00;;;9.40;;
19521;SDS011;9905;52.126;5.596;2023-03-23T02:16:19;9.27;;;8.88;;
19521;SDS011;9905;52.126;5.596;2023-03-23T02:18:57;9.55;;;9.15;;
19521;SDS011;9905;52.126;5.596;2023-03-23T02:21:36;9.60;;;9.23;;
19521;SDS011;9905;52.126;5.596;2023-03-23T02:24:35;9.98;;;9.50;;
19521;SDS011;9905;52.126;5.596;2023-03-23T02:27:20;10.27;;;9.68;;
19521;SDS011;9905;52.126;5.596;2023-03-23T02:30:27;9.27;;;8.88;;
19521;SDS011;9905;52.126;5.596;2023-03-23T02:36:02;8.85;;;8.55;;
19521;SDS011;9905;52.126;5.596;2023-03-23T02:38:35;9.27;;;8.95;;
19521;SDS011;9905;52.126;5.596;2023-03-23T02:41:08;9.90;;;9.50;;
19521;SDS011;9905;52.126;5.596;2023-03-23T02:43:38;10.20;;;9.60;;
19521;SDS011;9905;52.126;5.596;2023-03-23T02:46:07;9.55;;;9.15;;
19521;SDS011;9905;52.126;5.596;2023-03-23T02:48:36;9.98;;;9.45;;
19521;SDS011;9905;52.126;5.596;2023-03-23T02:51:05;10.32;;;9.73;;
19521;SDS011;9905;52.126;5.596;2023-03-23T02:53:34;10.48;;;10.07;;
19521;SDS011;9905;52.126;5.596;2023-03-23T02:56:05;9.50;;;9.10;;
19521;SDS011;9905;52.126;5.596;2023-03-23T02:58:34;10.30;;;9.70;;
19521;SDS011;9905;52.126;5.596;2023-03-23T03:01:11;9.20;;;8.73;;
19521;SDS011;9905;52.126;5.596;2023-03-23T03:04:03;9.57;;;9.02;;
19521;SDS011;9905;52.126;5.596;2023-03-23T03:06:34;9.73;;;9.32;;
19521;SDS011;9905;52.126;5.596;2023-03-23T03:09:09;9.07;;;8.77;;
19521;SDS011;9905;52.126;5.596;2023-03-23T03:11:45;9.85;;;9.25;;
19521;SDS011;9905;52.126;5.596;2023-03-23T03:14:16;8.75;;;8.35;;
19521;SDS011;9905;52.126;5.596;2023-03-23T03:16:49;9.18;;;8.65;;
19521;SDS011;9905;52.126;5.596;2023-03-23T03:19:24;8.77;;;8.38;;
19521;SDS011;9905;52.126;5.596;2023-03-23T03:21:54;9.13;;;8.68;;
19521;SDS011;9905;52.126;5.596;2023-03-23T03:24:25;8.77;;;8.25;;
19521;SDS011;9905;52.126;5.596;2023-03-23T03:26:54;8.57;;;8.20;;
19521;SDS011;9905;52.126;5.596;2023-03-23T03:29:25;8.15;;;7.72;;
19521;SDS011;9905;52.126;5.596;2023-03-23T03:31:55;8.88;;;8.23;;
19521;SDS011;9905;52.126;5.596;2023-03-23T03:34:25;8.40;;;7.78;;
19521;SDS011;9905;52.126;5.596;2023-03-23T03:36:54;7.97;;;7.38;;
19521;SDS011;9905;52.126;5.596;2023-03-23T03:39:23;7.90;;;7.53;;
19521;SDS011;9905;52.126;5.596;2023-03-23T03:41:50;8.15;;;7.25;;
19521;SDS011;9905;52.126;5.596;2023-03-23T03:44:17;7.93;;;7.43;;
19521;SDS011;9905;52.126;5.596;2023-03-23T03:46:44;7.40;;;6.97;;
19521;SDS011;9905;52.126;5.596;2023-03-23T03:49:11;7.40;;;6.82;;
19521;SDS011;9905;52.126;5.596;2023-03-23T03:51:39;6.97;;;6.60;;
19521;SDS011;9905;52.126;5.596;2023-03-23T03:54:07;7.43;;;7.00;;
19521;SDS011;9905;52.126;5.596;2023-03-23T03:56:33;7.22;;;6.82;;
19521;SDS011;9905;52.126;5.596;2023-03-23T03:59:03;7.07;;;6.68;;
19521;SDS011;9905;52.126;5.596;2023-03-23T04:01:29;7.15;;;6.90;;
19521;SDS011;9905;52.126;5.596;2023-03-23T04:03:56;7.25;;;6.95;;
19521;SDS011;9905;52.126;5.596;2023-03-23T04:06:23;7.10;;;6.80;;
19521;SDS011;9905;52.126;5.596;2023-03-23T04:08:54;7.68;;;7.07;;
19521;SDS011;9905;52.126;5.596;2023-03-23T04:11:20;7.03;;;6.70;;
19521;SDS011;9905;52.126;5.596;2023-03-23T04:13:47;7.00;;;6.50;;
19521;SDS011;9905;52.126;5.596;2023-03-23T04:16:14;7.13;;;6.78;;
19521;SDS011;9905;52.126;5.596;2023-03-23T04:18:42;6.57;;;6.25;;
19521;SDS011;9905;52.126;5.596;2023-03-23T04:21:09;7.03;;;6.63;;
19521;SDS011;9905;52.126;5.596;2023-03-23T04:23:36;6.47;;;5.97;;
19521;SDS011;9905;52.126;5.596;2023-03-23T04:26:04;7.18;;;6.70;;
19521;SDS011;9905;52.126;5.596;2023-03-23T04:28:31;7.43;;;6.97;;
19521;SDS011;9905;52.126;5.596;2023-03-23T04:30:58;6.72;;;6.43;;
19521;SDS011;9905;52.126;5.596;2023-03-23T04:33:27;7.25;;;6.80;;
19521;SDS011;9905;52.126;5.596;2023-03-23T04:35:56;6.68;;;6.40;;
19521;SDS011;9905;52.126;5.596;2023-03-23T04:38:26;6.82;;;6.43;;
19521;SDS011;9905;52.126;5.596;2023-03-23T04:40:54;7.03;;;6.63;;
19521;SDS011;9905;52.126;5.596;2023-03-23T04:43:23;6.78;;;6.38;;
19521;SDS011;9905;52.126;5.596;2023-03-23T04:45:52;7.07;;;6.78;;
19521;SDS011;9905;52.126;5.596;2023-03-23T04:48:21;6.15;;;5.65;;
19521;SDS011;9905;52.126;5.596;2023-03-23T04:50:48;7.03;;;6.55;;
19521;SDS011;9905;52.126;5.596;2023-03-23T04:53:16;6.50;;;5.90;;
19521;SDS011;9905;52.126;5.596;2023-03-23T04:55:44;6.10;;;5.70;;
19521;SDS011;9905;52.126;5.596;2023-03-23T04:58:12;6.20;;;5.80;;
19521;SDS011;9905;52.126;5.596;2023-03-23T05:00:41;5.80;;;5.32;;
19521;SDS011;9905;52.126;5.596;2023-03-23T05:03:14;5.70;;;5.50;;
19521;SDS011;9905;52.126;5.596;2023-03-23T05:05:41;5.50;;;5.30;;
19521;SDS011;9905;52.126;5.596;2023-03-23T05:08:08;5.93;;;5.55;;
19521;SDS011;9905;52.126;5.596;2023-03-23T05:10:35;5.43;;;5.13;;
19521;SDS011;9905;52.126;5.596;2023-03-23T05:13:02;7.32;;;5.20;;
19521;SDS011;9905;52.126;5.596;2023-03-23T05:15:28;5.40;;;4.95;;
19521;SDS011;9905;52.126;5.596;2023-03-23T05:17:56;5.40;;;5.13;;
19521;SDS011;9905;52.126;5.596;2023-03-23T05:20:23;5.72;;;5.35;;
19521;SDS011;9905;52.126;5.596;2023-03-23T05:22:51;6.75;;;4.93;;
19521;SDS011;9905;52.126;5.596;2023-03-23T05:25:18;7.18;;;5.50;;
19521;SDS011;9905;52.126;5.596;2023-03-23T05:27:45;8.23;;;5.78;;
19521;SDS011;9905;52.126;5.596;2023-03-23T05:30:17;5.40;;;5.20;;
19521;SDS011;9905;52.126;5.596;2023-03-23T05:32:46;5.75;;;5.35;;
19521;SDS011;9905;52.126;5.596;2023-03-23T05:35:17;8.30;;;5.90;;
19521;SDS011;9905;52.126;5.596;2023-03-23T05:37:45;6.22;;;5.50;;
19521;SDS011;9905;52.126;5.596;2023-03-23T05:40:12;6.93;;;5.63;;
19521;SDS011;9905;52.126;5.596;2023-03-23T05:42:39;6.00;;;5.50;;
19521;SDS011;9905;52.126;5.596;2023-03-23T05:45:07;5.80;;;5.32;;
19521;SDS011;9905;52.126;5.596;2023-03-23T05:47:35;6.20;;;5.70;;
19521;SDS011;9905;52.126;5.596;2023-03-23T05:50:03;6.45;;;5.85;;
19521;SDS011;9905;52.126;5.596;2023-03-23T05:52:32;5.80;;;5.50;;
19521;SDS011;9905;52.126;5.596;2023-03-23T05:55:00;5.95;;;5.60;;
19521;SDS011;9905;52.126;5.596;2023-03-23T05:57:28;5.30;;;5.00;;
19521;SDS011;9905;52.126;5.596;2023-03-23T05:59:55;6.22;;;5.70;;
19521;SDS011;9905;52.126;5.596;2023-03-23T06:02:22;6.18;;;5.47;;
19521;SDS011;9905;52.126;5.596;2023-03-23T06:04:49;6.28;;;5.28;;
19521;SDS011;9905;52.126;5.596;2023-03-23T06:07:22;6.18;;;5.63;;
19521;SDS011;9905;52.126;5.596;2023-03-23T06:09:50;6.47;;;6.10;;
19521;SDS011;9905;52.126;5.596;2023-03-23T06:12:18;7.57;;;6.90;;
19521;SDS011;9905;52.126;5.596;2023-03-23T06:14:45;8.38;;;7.65;;
19521;SDS011;9905;52.126;5.596;2023-03-23T06:17:13;8.07;;;7.63;;
19521;SDS011;9905;52.126;5.596;2023-03-23T06:19:41;8.90;;;8.50;;
19521;SDS011;9905;52.126;5.596;2023-03-23T06:22:08;9.10;;;8.25;;
19521;SDS011;9905;52.126;5.596;2023-03-23T06:24:34;11.18;;;9.98;;
19521;SDS011;9905;52.126;5.596;2023-03-23T06:27:03;11.23;;;10.05;;
19521;SDS011;9905;52.126;5.596;2023-03-23T06:29:29;11.05;;;10.35;;
19521;SDS011;9905;52.126;5.596;2023-03-23T06:31:58;12.40;;;11.63;;
19521;SDS011;9905;52.126;5.596;2023-03-23T06:34:28;14.18;;;11.70;;
19521;SDS011;9905;52.126;5.596;2023-03-23T06:36:55;12.65;;;11.50;;
19521;SDS011;9905;52.126;5.596;2023-03-23T06:39:22;12.73;;;11.90;;
19521;SDS011;9905;52.126;5.596;2023-03-23T06:41:50;12.40;;;11.25;;
19521;SDS011;9905;52.126;5.596;2023-03-23T06:44:18;12.25;;;11.52;;
19521;SDS011;9905;52.126;5.596;2023-03-23T06:46:45;11.60;;;10.68;;
19521;SDS011;9905;52.126;5.596;2023-03-23T06:49:13;10.60;;;10.00;;
19521;SDS011;9905;52.126;5.596;2023-03-23T06:51:40;10.40;;;9.82;;
19521;SDS011;9905;52.126;5.596;2023-03-23T06:54:07;11.38;;;10.38;;
19521;SDS011;9905;52.126;5.596;2023-03-23T06:56:34;11.07;;;10.02;;
19521;SDS011;9905;52.126;5.596;2023-03-23T06:59:01;10.57;;;9.90;;
19521;SDS011;9905;52.126;5.596;2023-03-23T07:01:29;10.30;;;9.80;;
19521;SDS011;9905;52.126;5.596;2023-03-23T07:03:56;9.73;;;9.23;;
19521;SDS011;9905;52.126;5.596;2023-03-23T07:06:23;10.00;;;9.30;;
19521;SDS011;9905;52.126;5.596;2023-03-23T07:08:51;10.10;;;9.52;;
19521;SDS011;9905;52.126;5.596;2023-03-23T07:11:18;9.73;;;9.32;;
19521;SDS011;9905;52.126;5.596;2023-03-23T07:13:44;10.02;;;9.52;;
19521;SDS011;9905;52.126;5.596;2023-03-23T07:16:11;10.70;;;10.10;;
19521;SDS011;9905;52.126;5.596;2023-03-23T07:18:39;10.65;;;10.02;;
19521;SDS011;9905;52.126;5.596;2023-03-23T07:21:06;10.23;;;9.63;;
19521;SDS011;9905;52.126;5.596;2023-03-23T07:23:33;10.77;;;10.02;;
19521;SDS011;9905;52.126;5.596;2023-03-23T07:26:00;9.45;;;8.95;;
19521;SDS011;9905;52.126;5.596;2023-03-23T07:28:28;9.68;;;9.23;;
19521;SDS011;9905;52.126;5.596;2023-03-23T07:30:55;9.25;;;8.50;;
19521;SDS011;9905;52.126;5.596;2023-03-23T07:33:22;9.30;;;8.60;;
19521;SDS011;9905;52.126;5.596;2023-03-23T07:35:50;8.43;;;8.02;;
19521;SDS011;9905;52.126;5.596;2023-03-23T07:38:17;10.75;;;8.40;;
19521;SDS011;9905;52.126;5.596;2023-03-23T07:40:45;8.25;;;7.75;;
19521;SDS011;9905;52.126;5.596;2023-03-23T07:43:12;8.05;;;7.53;;
19521;SDS011;9905;52.126;5.596;2023-03-23T07:45:39;8.40;;;7.78;;
19521;SDS011;9905;52.126;5.596;2023-03-23T07:48:06;8.13;;;7.63;;
19521;SDS011;9905;52.126;5.596;2023-03-23T07:50:32;7.50;;;7.15;;
19521;SDS011;9905;52.126;5.596;2023-03-23T07:53:03;8.20;;;7.60;;
19521;SDS011;9905;52.126;5.596;2023-03-23T07:55:30;7.78;;;7.25;;
19521;SDS011;9905;52.126;5.596;2023-03-23T07:57:57;8.73;;;7.93;;
19521;SDS011;9905;52.126;5.596;2023-03-23T08:00:24;8.48;;;8.02;;
19521;SDS011;9905;52.126;5.596;2023-03-23T08:02:52;8.95;;;8.25;;
19521;SDS011;9905;52.126;5.596;2023-03-23T08:05:21;9.00;;;8.23;;
19521;SDS011;9905;52.126;5.596;2023-03-23T08:07:48;8.88;;;8.45;;
19521;SDS011;9905;52.126;5.596;2023-03-23T08:10:18;8.05;;;7.65;;
19521;SDS011;9905;52.126;5.596;2023-03-23T08:12:49;9.15;;;8.55;;
19521;SDS011;9905;52.126;5.596;2023-03-23T08:15:17;8.50;;;7.97;;
19521;SDS011;9905;52.126;5.596;2023-03-23T08:17:46;8.30;;;7.80;;
19521;SDS011;9905;52.126;5.596;2023-03-23T08:20:13;8.85;;;8.40;;
19521;SDS011;9905;52.126;5.596;2023-03-23T08:22:42;8.95;;;8.20;;
19521;SDS011;9905;52.126;5.596;2023-03-23T08:25:10;9.35;;;8.93;;
19521;SDS011;9905;52.126;5.596;2023-03-23T08:27:40;9.13;;;8.65;;
19521;SDS011;9905;52.126;5.596;2023-03-23T08:30:09;9.10;;;8.60;;
19521;SDS011;9905;52.126;5.596;2023-03-23T08:32:37;8.73;;;8.43;;
19521;SDS011;9905;52.126;5.596;2023-03-23T08:35:05;8.07;;;7.68;;
19521;SDS011;9905;52.126;5.596;2023-03-23T08:37:33;9.48;;;8.70;;
19521;SDS011;9905;52.126;5.596;2023-03-23T08:40:00;8.65;;;8.10;;
19521;SDS011;9905;52.126;5.596;2023-03-23T08:42:32;9.45;;;8.82;;
19521;SDS011;9905;52.126;5.596;2023-03-23T08:45:01;9.45;;;8.88;;
19521;SDS011;9905;52.126;5.596;2023-03-23T08:47:28;8.90;;;8.20;;
19521;SDS011;9905;52.126;5.596;2023-03-23T08:49:55;9.65;;;8.90;;
19521;SDS011;9905;52.126;5.596;2023-03-23T08:52:21;8.90;;;8.35;;
19521;SDS011;9905;52.126;5.596;2023-03-23T08:54:48;8.48;;;8.10;;
19521;SDS011;9905;52.126;5.596;2023-03-23T08:57:15;9.05;;;8.45;;
19521;SDS011;9905;52.126;5.596;2023-03-23T08:59:43;8.98;;;8.27;;
19521;SDS011;9905;52.126;5.596;2023-03-23T09:02:12;9.40;;;8.70;;
19521;SDS011;9905;52.126;5.596;2023-03-23T09:04:39;9.38;;;8.82;;
19521;SDS011;9905;52.126;5.596;2023-03-23T09:07:07;9.88;;;8.88;;
19521;SDS011;9905;52.126;5.596;2023-03-23T09:09:34;9.20;;;8.35;;
19521;SDS011;9905;52.126;5.596;2023-03-23T09:12:02;10.38;;;8.38;;
19521;SDS011;9905;52.126;5.596;2023-03-23T09:14:29;7.72;;;7.13;;
19521;SDS011;9905;52.126;5.596;2023-03-23T09:16:56;9.43;;;8.55;;
19521;SDS011;9905;52.126;5.596;2023-03-23T09:19:24;9.55;;;8.60;;
19521;SDS011;9905;52.126;5.596;2023-03-23T09:21:51;8.23;;;7.72;;
19521;SDS011;9905;52.126;5.596;2023-03-23T09:24:18;7.78;;;7.03;;
19521;SDS011;9905;52.126;5.596;2023-03-23T09:26:44;8.60;;;6.70;;
19521;SDS011;9905;52.126;5.596;2023-03-23T09:29:11;6.38;;;5.78;;
19521;SDS011;9905;52.126;5.596;2023-03-23T09:31:39;6.00;;;5.57;;
19521;SDS011;9905;52.126;5.596;2023-03-23T09:34:06;6.72;;;5.95;;
19521;SDS011;9905;52.126;5.596;2023-03-23T09:36:36;7.25;;;5.95;;
19521;SDS011;9905;52.126;5.596;2023-03-23T09:39:04;6.30;;;5.90;;
19521;SDS011;9905;52.126;5.596;2023-03-23T09:41:48;6.97;;;5.70;;
19521;SDS011;9905;52.126;5.596;2023-03-23T09:44:36;6.35;;;5.93;;
19521;SDS011;9905;52.126;5.596;2023-03-23T09:47:13;6.25;;;5.63;;
19521;SDS011;9905;52.126;5.596;2023-03-23T09:49:45;7.57;;;6.05;;
19521;SDS011;9905;52.126;5.596;2023-03-23T09:52:18;6.00;;;5.60;;
19521;SDS011;9905;52.126;5.596;2023-03-23T09:54:46;5.75;;;5.25;;
19521;SDS011;9905;52.126;5.596;2023-03-23T09:57:15;5.93;;;5.35;;
19521;SDS011;9905;52.126;5.596;2023-03-23T09:59:52;9.20;;;5.03;;
19521;SDS011;9905;52.126;5.596;2023-03-23T10:02:26;5.97;;;4.85;;
19521;SDS011;9905;52.126;5.596;2023-03-23T10:04:56;7.97;;;4.40;;
19521;SDS011;9905;52.126;5.596;2023-03-23T10:07:34;5.20;;;4.10;;
19521;SDS011;9905;52.126;5.596;2023-03-23T10:10:01;5.93;;;4.03;;
19521;SDS011;9905;52.126;5.596;2023-03-23T10:12:30;5.50;;;4.18;;
19521;SDS011;9905;52.126;5.596;2023-03-23T10:15:07;5.40;;;4.65;;
19521;SDS011;9905;52.126;5.596;2023-03-23T10:17:41;5.85;;;4.07;;
19521;SDS011;9905;52.126;5.596;2023-03-23T10:20:19;5.35;;;3.95;;
19521;SDS011;9905;52.126;5.596;2023-03-23T10:22:55;4.70;;;4.30;;
19521;SDS011;9905;52.126;5.596;2023-03-23T10:25:29;6.32;;;4.40;;
19521;SDS011;9905;52.126;5.596;2023-03-23T10:28:01;9.63;;;4.35;;
19521;SDS011;9905;52.126;5.596;2023-03-23T10:30:34;10.35;;;4.50;;
19521;SDS011;9905;52.126;5.596;2023-03-23T10:33:05;4.65;;;4.10;;
19521;SDS011;9905;52.126;5.596;2023-03-23T10:35:38;7.25;;;3.80;;
19521;SDS011;9905;52.126;5.596;2023-03-23T10:38:13;4.68;;;4.18;;
19521;SDS011;9905;52.126;5.596;2023-03-23T10:40:46;4.85;;;4.30;;
19521;SDS011;9905;52.126;5.596;2023-03-23T10:43:17;7.43;;;4.18;;
19521;SDS011;9905;52.126;5.596;2023-03-23T10:45:44;7.15;;;4.05;;
19521;SDS011;9905;52.126;5.596;2023-03-23T10:48:21;5.25;;;3.90;;
19521;SDS011;9905;52.126;5.596;2023-03-23T10:50:54;4.03;;;3.50;;
19521;SDS011;9905;52.126;5.596;2023-03-23T10:53:25;7.53;;;3.78;;
19521;SDS011;9905;52.126;5.596;2023-03-23T10:55:57;6.35;;;3.72;;
19521;SDS011;9905;52.126;5.596;2023-03-23T10:58:25;6.82;;;3.67;;
19521;SDS011;9905;52.126;5.596;2023-03-23T11:00:55;6.53;;;4.22;;
19521;SDS011;9905;52.126;5.596;2023-03-23T11:03:24;5.20;;;3.65;;
19521;SDS011;9905;52.126;5.596;2023-03-23T11:05:57;5.22;;;3.75;;
19521;SDS011;9905;52.126;5.596;2023-03-23T11:08:30;9.45;;;3.63;;
19521;SDS011;9905;52.126;5.596;2023-03-23T11:11:07;6.30;;;3.58;;
19521;SDS011;9905;52.126;5.596;2023-03-23T11:13:38;4.93;;;3.30;;
19521;SDS011;9905;52.126;5.596;2023-03-23T11:16:09;5.88;;;3.20;;
19521;SDS011;9905;52.126;5.596;2023-03-23T11:18:47;3.97;;;3.67;;
19521;SDS011;9905;52.126;5.596;2023-03-23T11:21:14;4.35;;;3.30;;
19521;SDS011;9905;52.126;5.596;2023-03-23T11:23:47;6.80;;;2.97;;
19521;SDS011;9905;52.126;5.596;2023-03-23T11:26:16;6.00;;;2.92;;
19521;SDS011;9905;52.126;5.596;2023-03-23T11:28:47;5.45;;;3.30;;
19521;SDS011;9905;52.126;5.596;2023-03-23T11:31:20;5.95;;;3.58;;
19521;SDS011;9905;52.126;5.596;2023-03-23T11:33:51;6.70;;;3.90;;
19521;SDS011;9905;52.126;5.596;2023-03-23T11:36:21;3.80;;;3.13;;
19521;SDS011;9905;52.126;5.596;2023-03-23T11:38:57;3.72;;;3.38;;
19521;SDS011;9905;52.126;5.596;2023-03-23T11:41:24;10.00;;;3.72;;
19521;SDS011;9905;52.126;5.596;2023-03-23T11:43:56;7.80;;;4.15;;
19521;SDS011;9905;52.126;5.596;2023-03-23T11:46:27;6.50;;;3.55;;
19521;SDS011;9905;52.126;5.596;2023-03-23T11:49:00;5.00;;;3.10;;
19521;SDS011;9905;52.126;5.596;2023-03-23T11:51:30;5.05;;;2.85;;
19521;SDS011;9905;52.126;5.596;2023-03-23T11:54:09;10.95;;;3.50;;
19521;SDS011;9905;52.126;5.596;2023-03-23T11:56:41;6.57;;;2.95;;
19521;SDS011;9905;52.126;5.596;2023-03-23T11:59:09;5.93;;;3.40;;
19521;SDS011;9905;52.126;5.596;2023-03-23T12:01:43;7.90;;;3.40;;
19521;SDS011;9905;52.126;5.596;2023-03-23T12:04:25;4.13;;;3.25;;
19521;SDS011;9905;52.126;5.596;2023-03-23T12:07:05;4.63;;;3.33;;
19521;SDS011;9905;52.126;5.596;2023-03-23T12:09:55;7.30;;;3.63;;
19521;SDS011;9905;52.126;5.596;2023-03-23T12:12:30;6.35;;;3.75;;
19521;SDS011;9905;52.126;5.596;2023-03-23T12:15:07;5.30;;;3.72;;
19521;SDS011;9905;52.126;5.596;2023-03-23T12:17:44;4.47;;;3.42;;
19521;SDS011;9905;52.126;5.596;2023-03-23T12:20:20;8.07;;;3.78;;
19521;SDS011;9905;52.126;5.596;2023-03-23T12:22:58;7.78;;;3.55;;
19521;SDS011;9905;52.126;5.596;2023-03-23T12:25:42;9.02;;;3.88;;
19521;SDS011;9905;52.126;5.596;2023-03-23T12:28:20;5.57;;;3.95;;
19521;SDS011;9905;52.126;5.596;2023-03-23T12:30:55;4.20;;;3.90;;
19521;SDS011;9905;52.126;5.596;2023-03-23T12:33:32;5.72;;;3.70;;
19521;SDS011;9905;52.126;5.596;2023-03-23T12:36:13;3.95;;;3.63;;
19521;SDS011;9905;52.126;5.596;2023-03-23T12:38:51;4.45;;;3.88;;
19521;SDS011;9905;52.126;5.596;2023-03-23T12:41:35;7.18;;;3.90;;
19521;SDS011;9905;52.126;5.596;2023-03-23T12:44:10;4.72;;;4.15;;
19521;SDS011;9905;52.126;5.596;2023-03-23T12:46:49;5.50;;;4.70;;
19521;SDS011;9905;52.126;5.596;2023-03-23T12:49:22;6.95;;;3.88;;
19521;SDS011;9905;52.126;5.596;2023-03-23T12:51:55;6.22;;;4.63;;
19521;SDS011;9905;52.126;5.596;2023-03-23T12:54:27;3.60;;;3.35;;
19521;SDS011;9905;52.126;5.596;2023-03-23T12:57:00;4.63;;;3.45;;
19521;SDS011;9905;52.126;5.596;2023-03-23T12:59:34;4.53;;;3.72;;
19521;SDS011;9905;52.126;5.596;2023-03-23T13:02:15;3.38;;;3.20;;
19521;SDS011;9905;52.126;5.596;2023-03-23T13:04:46;4.43;;;3.53;;
19521;SDS011;9905;52.126;5.596;2023-03-23T13:07:18;3.40;;;3.20;;
19521;SDS011;9905;52.126;5.596;2023-03-23T13:09:52;4.35;;;3.83;;
19521;SDS011;9905;52.126;5.596;2023-03-23T13:12:26;3.70;;;3.50;;
19521;SDS011;9905;52.126;5.596;2023-03-23T13:14:56;5.32;;;3.42;;
19521;SDS011;9905;52.126;5.596;2023-03-23T13:17:32;7.20;;;3.25;;
19521;SDS011;9905;52.126;5.596;2023-03-23T13:23:02;5.38;;;3.08;;
19521;SDS011;9905;52.126;5.596;2023-03-23T13:25:41;7.03;;;3.47;;
19521;SDS011;9905;52.126;5.596;2023-03-23T13:28:17;4.00;;;3.20;;
19521;SDS011;9905;52.126;5.596;2023-03-23T13:30:57;4.63;;;3.05;;
19521;SDS011;9905;52.126;5.596;2023-03-23T13:33:29;4.07;;;3.33;;
19521;SDS011;9905;52.126;5.596;2023-03-23T13:36:01;5.45;;;3.08;;
19521;SDS011;9905;52.126;5.596;2023-03-23T13:38:32;3.20;;;2.90;;
19521;SDS011;9905;52.126;5.596;2023-03-23T13:41:05;5.85;;;3.17;;
19521;SDS011;9905;52.126;5.596;2023-03-23T13:43:36;5.07;;;3.25;;
19521;SDS011;9905;52.126;5.596;2023-03-23T13:46:12;3.40;;;3.10;;
19521;SDS011;9905;52.126;5.596;2023-03-23T13:48:51;3.38;;;3.15;;
19521;SDS011;9905;52.126;5.596;2023-03-23T13:51:33;4.13;;;2.95;;
19521;SDS011;9905;52.126;5.596;2023-03-23T13:54:19;3.55;;;2.80;;
19521;SDS011;9905;52.126;5.596;2023-03-23T13:56:52;3.22;;;3.00;;
19521;SDS011;9905;52.126;5.596;2023-03-23T13:59:45;3.92;;;2.90;;
19521;SDS011;9905;52.126;5.596;2023-03-23T14:02:35;3.60;;;2.60;;
19521;SDS011;9905;52.126;5.596;2023-03-23T14:05:11;2.60;;;2.50;;
19521;SDS011;9905;52.126;5.596;2023-03-23T14:07:56;3.17;;;2.97;;
19521;SDS011;9905;52.126;5.596;2023-03-23T14:10:31;2.85;;;2.70;;
19521;SDS011;9905;52.126;5.596;2023-03-23T14:13:00;7.82;;;3.38;;
19521;SDS011;9905;52.126;5.596;2023-03-23T14:15:29;3.88;;;3.15;;
19521;SDS011;9905;52.126;5.596;2023-03-23T14:18:03;4.40;;;4.10;;
19521;SDS011;9905;52.126;5.596;2023-03-23T14:20:31;4.57;;;4.07;;
19521;SDS011;9905;52.126;5.596;2023-03-23T14:22:59;4.30;;;4.00;;
19521;SDS011;9905;52.126;5.596;2023-03-23T14:25:26;4.45;;;3.80;;
19521;SDS011;9905;52.126;5.596;2023-03-23T14:27:56;4.25;;;3.97;;
19521;SDS011;9905;52.126;5.596;2023-03-23T14:30:24;4.10;;;3.80;;
19521;SDS011;9905;52.126;5.596;2023-03-23T14:32:54;4.40;;;4.10;;
19521;SDS011;9905;52.126;5.596;2023-03-23T14:35:31;4.07;;;3.78;;
19521;SDS011;9905;52.126;5.596;2023-03-23T14:38:00;4.40;;;3.63;;
19521;SDS011;9905;52.126;5.596;2023-03-23T14:40:27;3.92;;;3.67;;
19521;SDS011;9905;52.126;5.596;2023-03-23T14:42:55;3.92;;;3.65;;
19521;SDS011;9905;52.126;5.596;2023-03-23T14:45:23;4.38;;;3.78;;
19521;SDS011;9905;52.126;5.596;2023-03-23T14:47:51;3.45;;;3.05;;
19521;SDS011;9905;52.126;5.596;2023-03-23T14:50:23;3.88;;;3.47;;
19521;SDS011;9905;52.126;5.596;2023-03-23T14:52:56;6.15;;;3.78;;
19521;SDS011;9905;52.126;5.596;2023-03-23T14:55:24;4.85;;;3.20;;
19521;SDS011;9905;52.126;5.596;2023-03-23T14:57:53;3.58;;;3.30;;
19521;SDS011;9905;52.126;5.596;2023-03-23T15:00:22;5.47;;;3.00;;
19521;SDS011;9905;52.126;5.596;2023-03-23T15:02:51;3.47;;;3.20;;
19521;SDS011;9905;52.126;5.596;2023-03-23T15:05:22;5.30;;;3.22;;
19521;SDS011;9905;52.126;5.596;2023-03-23T15:07:55;5.53;;;2.72;;
19521;SDS011;9905;52.126;5.596;2023-03-23T15:10:27;4.75;;;3.22;;
19521;SDS011;9905;52.126;5.596;2023-03-23T15:12:54;4.38;;;2.97;;
19521;SDS011;9905;52.126;5.596;2023-03-23T15:15:24;3.33;;;3.13;;
19521;SDS011;9905;52.126;5.596;2023-03-23T15:17:54;4.20;;;3.05;;
19521;SDS011;9905;52.126;5.596;2023-03-23T15:20:23;3.38;;;3.05;;
19521;SDS011;9905;52.126;5.596;2023-03-23T15:22:53;5.18;;;2.90;;
19521;SDS011;9905;52.126;5.596;2023-03-23T15:25:21;4.47;;;3.20;;